Time;durP1;ratioP1;P1;durP2;ratioP2;P2;SDS_P1;SDS_P2;PMS_P1;PMS_P2;Temp;Humidity;BMP_temperature;BMP_pressure;BME280_temperature;BME280_humidity;BME280_pressure;Samples;Min_cycle;Max_cycle;Signal;HPM_P1;HPM_P2
2021/10/04 00:00:13;;;;;;;;;;;;;;;;;;5097327;28;19922;-78
2021/10/04 00:02:38;;;;;;;;;;;;;;;;;;5097675;28;20365;-79
2021/10/04 00:05:04;;;;;;;;;;;;;;;;;;5097388;28;19911;-79
2021/10/04 00:07:29;;;;;;;;;;;;;;;;;;5096948;28;19912;-78
2021/10/04 00:09:54;;;;;;;;;;;;;;;;;;5097088;28;20254;-79
2021/10/04 00:12:19;;;;;;;;;;;;;;;;;;5097134;28;19991;-80
2021/10/04 00:14:45;;;;;;;;;;;;;;;;;;5096108;28;20359;-79
2021/10/04 00:17:10;;;;;;;;;;;;;;;;;;5096975;28;19918;-79
2021/10/04 00:19:35;;;;;;;;;;;;;;;;;;5096853;28;20257;-78
2021/10/04 00:22:01;;;;;;;;;;;;;;;;;;5097356;28;19926;-77
2021/10/04 00:24:27;;;;;;;;;;;;;;;;;;5096910;28;20003;-80
2021/10/04 00:26:52;;;;;;;;;;;;;;;;;;5096667;28;20284;-79
2021/10/04 00:29:19;;;;;;;;;;;;;;;;;;5095837;28;20250;-79
2021/10/04 00:31:44;;;;;;;;;;;;;;;;;;5095918;28;19911;-79
2021/10/04 00:34:10;;;;;;;;;;;;;;;;;;5096557;28;19912;-77
2021/10/04 00:36:35;;;;;;;;;;;;;;;;;;5096525;28;19908;-79
2021/10/04 00:39:00;;;;;;;;;;;;;;;;;;5096921;28;20215;-79
2021/10/04 00:41:25;;;;;;;;;;;;;;;;;;5096022;28;19908;-78
2021/10/04 00:43:51;;;;;;;;;;;;;;;;;;5095943;28;19908;-77
2021/10/04 00:46:16;;;;;;;;;;;;;;;;;;5096000;28;20241;-77
2021/10/04 00:48:41;;;;;;;;;;;;;;;;;;5096143;28;19908;-77
2021/10/04 00:51:07;;;;;;;;;;;;;;;;;;5096025;28;20455;-77
2021/10/04 00:53:32;;;;;;;;;;;;;;;;;;5096218;28;19923;-77
2021/10/04 00:55:57;;;;;;;;;;;;;;;;;;5095943;28;19935;-78
2021/10/04 00:58:22;;;;;;;;;;;;;;;;;;5094970;28;19927;-77
2021/10/04 01:00:48;;;;;;;;;;;;;;;;;;5095732;28;19923;-79
2021/10/04 01:03:15;;;;;;;;;;;;;;;;;;5096015;28;19934;-77
2021/10/04 01:05:41;;;;;;;;;;;;;;;;;;5094644;28;19965;-77
2021/10/04 01:08:06;;;;;;;;;;;;;;;;;;5095622;28;19920;-77
2021/10/04 01:10:32;;;;;;;;;;;;;;;;;;5094741;28;20010;-77
2021/10/04 01:12:57;;;;;;;;;;;;;;;;;;5096126;28;19915;-78
2021/10/04 01:15:22;;;;;;;;;;;;;;;;;;5097095;28;19911;-77
2021/10/04 01:17:48;;;;;;;;;;;;;;;;;;5096743;28;19907;-77
2021/10/04 01:20:16;;;;;;;;;;;;;;;;;;5096276;28;19919;-77
2021/10/04 01:22:41;;;;;;;;;;;;;;;;;;5095681;28;20000;-77
2021/10/04 01:25:07;;;;;;;;;;;;;;;;;;5095733;28;19908;-77
2021/10/04 01:27:32;;;;;;;;;;;;;;;;;;5095864;28;19923;-78
2021/10/04 01:29:57;;;;;;;;;;;;;;;;;;5095468;28;19916;-78
2021/10/04 01:32:23;;;;;;;;;;;;;;;;;;5095504;28;20365;-78
2021/10/04 01:34:48;;;;;;;;;;;;;;;;;;5095878;28;19908;-79
2021/10/04 01:37:13;;;;;;;;;;;;;;;;;;5097778;28;19934;-78
2021/10/04 01:39:38;;;;;;;;;;;;;;;;;;5099230;28;20291;-77
2021/10/04 01:42:04;;;;;;;;;;;;;;;;;;5101024;28;19919;-77
2021/10/04 01:44:29;;;;;;;;;;;;;;;;;;5099294;28;20338;-78
2021/10/04 01:46:55;;;;;;;;;;;;;;;;;;5099897;28;19916;-77
2021/10/04 01:49:20;;;;;;;;;;;;;;;;;;5100551;28;19995;-77
2021/10/04 01:51:45;;;;;;;;;;;;;;;;;;5106662;28;19908;-77
2021/10/04 01:54:10;;;;;;;;;;;;;;;;;;5118821;28;19931;-77
2021/10/04 01:56:35;;;;;;;;;;;;;;;;;;5120814;28;19919;-77
2021/10/04 01:59:01;;;;;;;;;;;;;;;;;;5106255;28;20364;-76
2021/10/04 02:01:26;;;;;;;;;;;;;;;;;;5100483;28;20337;-78
2021/10/04 02:03:51;;;;;;;;;;;;;;;;;;5110837;28;19908;-78
2021/10/04 02:06:17;;;;;;;;;;;;;;;;;;5121396;28;19900;-78
2021/10/04 02:08:44;;;;;;;;;;;;;;;;;;5121644;28;19969;-78
2021/10/04 02:11:09;;;;;;;;;;;;;;;;;;5114684;28;19916;-77
2021/10/04 02:13:34;;;;;;;;;;;;;;;;;;5098633;28;19930;-77
2021/10/04 02:15:59;;;;;;;;;;;;;;;;;;5098343;28;19908;-77
2021/10/04 02:18:25;;;;;;;;;;;;;;;;;;5115142;28;19962;-77
2021/10/04 02:20:50;;;;;;;;;;;;;;;;;;5097782;28;20014;-76
2021/10/04 02:23:15;;;;;;;;;;;;;;;;;;5099112;28;20252;-78
2021/10/04 02:25:45;;;;;;;;;;;;;;;;;;5098612;28;19951;-76
2021/10/04 02:28:11;;;;;;;;;;;;;;;;;;5098736;28;19927;-76
2021/10/04 02:30:37;;;;;;;;;;;;;;;;;;5098953;28;19908;-77
2021/10/04 02:33:02;;;;;;;;;;;;;;;;;;5098677;28;19991;-77
2021/10/04 02:35:28;;;;;;;;;;;;;;;;;;5097594;28;19927;-78
2021/10/04 02:37:53;;;;;;;;;;;;;;;;;;5098829;28;20281;-77
2021/10/04 02:40:19;;;;;;;;;;;;;;;;;;5098600;28;20065;-77
2021/10/04 02:42:44;;;;;;;;;;;;;;;;;;5098783;28;19919;-79
2021/10/04 02:45:11;;;;;;;;;;;;;;;;;;5098649;28;19908;-78
2021/10/04 02:47:37;;;;;;;;;;;;;;;;;;5097388;28;19920;-77
2021/10/04 02:50:04;;;;;;;;;;;;;;;;;;5096188;28;19945;-78
2021/10/04 02:52:29;;;;;;;;;;;;;;;;;;5095990;28;19907;-78
2021/10/04 02:54:54;;;;;;;;;;;;;;;;;;5097055;28;20368;-77
2021/10/04 02:57:19;;;;;;;;;;;;;;;;;;5096925;28;19908;-78
2021/10/04 02:59:45;;;;;;;;;;;;;;;;;;5095987;28;19908;-78
2021/10/04 03:02:10;;;;;;;;;;;;;;;;;;5095875;28;19908;-77
2021/10/04 03:04:35;;;;;;;;;;;;;;;;;;5096103;28;19908;-77
2021/10/04 03:07:00;;;;;;;;;;;;;;;;;;5097367;28;20053;-78
2021/10/04 03:09:26;;;;;;;;;;;;;;;;;;5097208;28;20303;-78
2021/10/04 03:11:51;;;;;;;;;;;;;;;;;;5097340;28;20451;-78
2021/10/04 03:14:16;;;;;;;;;;;;;;;;;;5097468;28;19912;-77
2021/10/04 03:16:41;;;;;;;;;;;;;;;;;;5097205;28;19912;-78
2021/10/04 03:19:07;;;;;;;;;;;;;;;;;;5096845;28;19962;-78
2021/10/04 03:21:32;;;;;;;;;;;;;;;;;;5096859;28;20062;-77
2021/10/04 03:23:57;;;;;;;;;;;;;;;;;;5112858;28;20336;-77
2021/10/04 03:26:23;;;;;;;;;;;;;;;;;;5096951;28;20398;-77
2021/10/04 03:28:48;;;;;;;;;;;;;;;;;;5096638;28;20345;-78
2021/10/04 03:31:13;;;;;;;;;;;;;;;;;;5096817;28;19908;-78
2021/10/04 03:33:38;;;;;;;;;;;;;;;;;;5096139;28;19908;-78
2021/10/04 03:36:04;;;;;;;;;;;;;;;;;;5095896;28;19908;-77
2021/10/04 03:38:29;;;;;;;;;;;;;;;;;;5096618;28;19920;-77
2021/10/04 03:40:55;;;;;;;;;;;;;;;;;;5095431;28;19908;-78
2021/10/04 03:43:20;;;;;;;;;;;;;;;;;;5095501;28;20053;-78
2021/10/04 03:45:45;;;;;;;;;;;;;;;;;;5095286;28;19955;-79
2021/10/04 03:48:10;;;;;;;;;;;;;;;;;;5060019;28;1052528;-78
2021/10/04 03:50:36;;;;;;;;;;;;;;;;;;5097249;28;19911;-77
2021/10/04 03:53:01;;;;;;;;;;;;;;;;;;5097394;28;19912;-77
2021/10/04 03:55:26;;;;;;;;;;;;;;;;;;5096277;28;19965;-77
2021/10/04 03:57:52;;;;;;;;;;;;;;;;;;5096135;28;19908;-79
2021/10/04 04:00:18;;;;;;;;;;;;;;;;;;5096064;28;19972;-77
2021/10/04 04:02:44;;;;;;;;;;;;;;;;;;5097060;28;19938;-78
2021/10/04 04:05:09;;;;;;;;;;;;;;;;;;5095827;28;20346;-78
2021/10/04 04:07:35;;;;;;;;;;;;;;;;;;5096759;28;19916;-77
2021/10/04 04:10:00;;;;;;;;;;;;;;;;;;5097236;28;19999;-78
2021/10/04 04:12:25;;;;;;;;;;;;;;;;;;5096812;28;20303;-77
2021/10/04 04:14:50;;;;;;;;;;;;;;;;;;5096812;28;20291;-77
2021/10/04 04:17:16;;;;;;;;;;;;;;;;;;5095839;28;20257;-78
2021/10/04 04:19:41;;;;;;;;;;;;;;;;;;5096709;28;20297;-78
2021/10/04 04:22:06;;;;;;;;;;;;;;;;;;5096793;28;20010;-78
2021/10/04 04:24:31;;;;;;;;;;;;;;;;;;5096800;28;19967;-78
2021/10/04 04:26:57;;;;;;;;;;;;;;;;;;5096547;28;19912;-76
2021/10/04 04:29:22;;;;;;;;;;;;;;;;;;5112334;28;19908;-76
2021/10/04 04:31:48;;;;;;;;;;;;;;;;;;5096483;28;19968;-77
2021/10/04 04:34:13;;;;;;;;;;;;;;;;;;5096901;28;19922;-77
2021/10/04 04:36:40;;;;;;;;;;;;;;;;;;5098241;28;20349;-78
2021/10/04 04:39:05;;;;;;;;;;;;;;;;;;5097048;28;19923;-77
2021/10/04 04:41:30;;;;;;;;;;;;;;;;;;5097032;28;19908;-78
2021/10/04 04:43:55;;;;;;;;;;;;;;;;;;5097861;28;19919;-78
2021/10/04 04:46:20;;;;;;;;;;;;;;;;;;5097896;28;19916;-77
2021/10/04 04:48:46;;;;;;;;;;;;;;;;;;5098251;28;19995;-78
2021/10/04 04:51:11;;;;;;;;;;;;;;;;;;5097612;28;19916;-77
2021/10/04 04:53:36;;;;;;;;;;;;;;;;;;5097045;28;19908;-76
2021/10/04 04:56:01;;;;;;;;;;;;;;;;;;5096662;28;19918;-77
2021/10/04 04:58:27;;;;;;;;;;;;;;;;;;5096459;28;19992;-78
2021/10/04 05:00:52;;;;;;;;;;;;;;;;;;5095530;28;19911;-77
2021/10/04 05:03:18;;;;;;;;;;;;;;;;;;5095584;28;19912;-77
2021/10/04 05:05:43;;;;;;;;;;;;;;;;;;5096035;28;19912;-76
2021/10/04 05:08:09;;;;;;;;;;;;;;;;;;5095855;28;19912;-79
2021/10/04 05:10:34;;;;;;;;;;;;;;;;;;5095921;28;19918;-77
2021/10/04 05:12:59;;;;;;;;;;;;;;;;;;5096038;28;19908;-78
2021/10/04 05:15:24;;;;;;;;;;;;;;;;;;5094790;28;19907;-77
2021/10/04 05:17:49;;;;;;;;;;;;;;;;;;5094765;28;19969;-78
2021/10/04 05:20:15;;;;;;;;;;;;;;;;;;5095584;28;19961;-77
2021/10/04 05:22:40;;;;;;;;;;;;;;;;;;5094502;28;19969;-77
2021/10/04 05:25:06;;;;;;;;;;;;;;;;;;5095812;28;20389;-77
2021/10/04 05:27:32;;;;;;;;;;;;;;;;;;5094306;28;20253;-77
2021/10/04 05:29:57;;;;;;;;;;;;;;;;;;5096041;28;19911;-76
2021/10/04 05:32:23;;;;;;;;;;;;;;;;;;5095298;28;19923;-77
2021/10/04 05:34:48;;;;;;;;;;;;;;;;;;5094486;28;19951;-79
2021/10/04 05:37:13;;;;;;;;;;;;;;;;;;5095816;28;19937;-78
2021/10/04 05:39:38;;;;;;;;;;;;;;;;;;5095700;28;20389;-78
2021/10/04 05:42:04;;;;;;;;;;;;;;;;;;5095499;28;20451;-78
2021/10/04 05:44:29;;;;;;;;;;;;;;;;;;5095530;28;19991;-77
2021/10/04 05:46:54;;;;;;;;;;;;;;;;;;5095340;28;19927;-78
2021/10/04 05:49:19;;;;;;;;;;;;;;;;;;5094595;28;19907;-76
2021/10/04 05:51:45;;;;;;;;;;;;;;;;;;5095487;28;19918;-77
2021/10/04 05:54:10;;;;;;;;;;;;;;;;;;5095429;28;19911;-77
2021/10/04 05:56:35;;;;;;;;;;;;;;;;;;5095941;28;20291;-77
2021/10/04 05:59:01;;;;;;;;;;;;;;;;;;5095816;28;20256;-77
2021/10/04 06:01:26;;;;;;;;;;;;;;;;;;5096940;28;20324;-78
2021/10/04 06:03:51;;;;;;;;;;;;;;;;;;5098477;28;19919;-79
2021/10/04 06:06:16;;;;;;;;;;;;;;;;;;5097787;28;19919;-77
2021/10/04 06:08:41;;;;;;;;;;;;;;;;;;5096580;28;19908;-77
2021/10/04 06:11:07;;;;;;;;;;;;;;;;;;5096219;28;19914;-78
2021/10/04 06:13:32;;;;;;;;;;;;;;;;;;5097572;28;19916;-77
2021/10/04 06:15:57;;;;;;;;;;;;;;;;;;5097422;28;20007;-76
2021/10/04 06:18:22;;;;;;;;;;;;;;;;;;5096616;28;19952;-78
2021/10/04 06:20:48;;;;;;;;;;;;;;;;;;5095425;28;19915;-77
2021/10/04 06:23:14;;;;;;;;;;;;;;;;;;5095568;28;19912;-78
2021/10/04 06:25:39;;;;;;;;;;;;;;;;;;5093847;28;19912;-76
2021/10/04 06:28:04;;;;;;;;;;;;;;;;;;5094932;28;19912;-77
2021/10/04 06:30:30;;;;;;;;;;;;;;;;;;5095119;28;19916;-77
2021/10/04 06:32:55;;;;;;;;;;;;;;;;;;5094916;28;20006;-76
2021/10/04 06:35:20;;;;;;;;;;;;;;;;;;5094019;28;20025;-77
2021/10/04 06:37:46;;;;;;;;;;;;;;;;;;5093761;28;19908;-77
2021/10/04 06:40:11;;;;;;;;;;;;;;;;;;5096270;28;20293;-77
2021/10/04 06:42:37;;;;;;;;;;;;;;;;;;5098676;28;19908;-76
2021/10/04 06:45:02;;;;;;;;;;;;;;;;;;5098802;28;20403;-76
2021/10/04 06:47:28;;;;;;;;;;;;;;;;;;5097166;28;19916;-79
2021/10/04 06:49:53;;;;;;;;;;;;;;;;;;5098440;28;19912;-76
2021/10/04 06:52:18;;;;;;;;;;;;;;;;;;5098482;28;19912;-75
2021/10/04 06:54:44;;;;;;;;;;;;;;;;;;5098245;28;19912;-77
2021/10/04 06:57:09;;;;;;;;;;;;;;;;;;5099067;28;19908;-79
2021/10/04 06:59:35;;;;;;;;;;;;;;;;;;5098595;28;19908;-77
2021/10/04 07:02:00;;;;;;;;;;;;;;;;;;5098580;28;19908;-78
2021/10/04 07:04:26;;;;;;;;;;;;;;;;;;5099278;28;19908;-78
2021/10/04 07:06:51;;;;;;;;;;;;;;;;;;5098530;28;19969;-78
2021/10/04 07:09:16;;;;;;;;;;;;;;;;;;5108603;28;19995;-79
2021/10/04 07:11:41;;;;;;;;;;;;;;;;;;5107644;28;19919;-78
2021/10/04 07:14:07;;;;;;;;;;;;;;;;;;5115924;28;19908;-79
2021/10/04 07:16:32;;;;;;;;;;;;;;;;;;5119491;28;19907;-77
2021/10/04 07:18:57;;;;;;;;;;;;;;;;;;5112233;28;19912;-78
2021/10/04 07:21:22;;;;;;;;;;;;;;;;;;5098974;28;19941;-78
2021/10/04 07:23:48;;;;;;;;;;;;;;;;;;5102917;28;20014;-78
2021/10/04 07:26:13;;;;;;;;;;;;;;;;;;5119801;28;19930;-78
2021/10/04 07:28:39;;;;;;;;;;;;;;;;;;5116090;28;19916;-78
2021/10/04 07:31:04;;;;;;;;;;;;;;;;;;5118199;28;19908;-77
2021/10/04 07:33:30;;;;;;;;;;;;;;;;;;5101394;28;20353;-77
2021/10/04 07:35:55;;;;;;;;;;;;;;;;;;5098391;28;19908;-77
2021/10/04 07:38:21;;;;;;;;;;;;;;;;;;5098029;28;19908;-77
2021/10/04 07:40:46;;;;;;;;;;;;;;;;;;5097736;28;19912;-78
2021/10/04 07:43:11;;;;;;;;;;;;;;;;;;5097949;28;19908;-76
2021/10/04 07:45:37;;;;;;;;;;;;;;;;;;5098017;28;20254;-77
2021/10/04 07:48:02;;;;;;;;;;;;;;;;;;5097253;28;20247;-76
2021/10/04 07:50:27;;;;;;;;;;;;;;;;;;5097843;28;20312;-76
2021/10/04 07:52:53;;;;;;;;;;;;;;;;;;5096471;28;19912;-77
2021/10/04 07:55:19;;;;;;;;;;;;;;;;;;5097673;28;20022;-77
2021/10/04 07:57:48;;;;;;;;;;;;;;;;;;5096287;28;19919;-77
2021/10/04 08:00:15;;;;;;;;;;;;;;;;;;5097650;28;19912;-77
2021/10/04 08:02:40;;;;;;;;;;;;;;;;;;5097366;28;19991;-77
2021/10/04 08:05:05;;;;;;;;;;;;;;;;;;5097432;28;20056;-77
2021/10/04 08:07:31;;;;;;;;;;;;;;;;;;5095902;28;19912;-77
2021/10/04 08:09:56;;;;;;;;;;;;;;;;;;5097350;28;19911;-77
2021/10/04 08:12:25;;;;;;;;;;;;;;;;;;5097046;28;19916;-76
2021/10/04 08:14:50;;;;;;;;;;;;;;;;;;5096041;28;19908;-77
2021/10/04 08:17:15;;;;;;;;;;;;;;;;;;5096940;28;19915;-77
2021/10/04 08:19:40;;;;;;;;;;;;;;;;;;5097297;28;19961;-77
2021/10/04 08:22:06;;;;;;;;;;;;;;;;;;5095923;28;20330;-77
2021/10/04 08:24:31;;;;;;;;;;;;;;;;;;5095907;28;19958;-79
2021/10/04 08:26:56;;;;;;;;;;;;;;;;;;5095562;28;19959;-77
2021/10/04 08:29:21;;;;;;;;;;;;;;;;;;5095633;28;19908;-77
2021/10/04 08:31:47;;;;;;;;;;;;;;;;;;5096615;28;19913;-77
2021/10/04 08:34:12;;;;;;;;;;;;;;;;;;5095426;28;19916;-78
2021/10/04 08:36:38;;;;;;;;;;;;;;;;;;5096812;28;19919;-79
2021/10/04 08:39:04;;;;;;;;;;;;;;;;;;5096466;28;19920;-80
2021/10/04 08:41:33;;;;;;;;;;;;;;;;;;5096226;28;19908;-79
2021/10/04 08:43:59;;;;;;;;;;;;;;;;;;5095647;28;19998;-79
2021/10/04 08:46:25;;;;;;;;;;;;;;;;;;5096301;28;20334;-79
2021/10/04 08:48:50;;;;;;;;;;;;;;;;;;5096547;28;19903;-80
2021/10/04 08:51:16;;;;;;;;;;;;;;;;;;5095541;28;19908;-80
2021/10/04 08:53:42;;;;;;;;;;;;;;;;;;5096424;28;19915;-80
2021/10/04 08:56:07;;;;;;;;;;;;;;;;;;5096221;28;20368;-79
2021/10/04 08:58:33;;;;;;;;;;;;;;;;;;5096489;28;19915;-78
2021/10/04 09:00:59;;;;;;;;;;;;;;;;;;5096653;28;19908;-79
2021/10/04 09:03:25;;;;;;;;;;;;;;;;;;5111931;28;19911;-79
2021/10/04 09:05:56;;;;;;;;;;;;;;;;;;5096183;28;19931;-80
2021/10/04 09:08:22;;;;;;;;;;;;;;;;;;5096278;28;19908;-81
2021/10/04 09:10:49;;;;;;;;;;;;;;;;;;5096599;28;19908;-80
2021/10/04 09:13:15;;;;;;;;;;;;;;;;;;5096321;28;19911;-80
2021/10/04 09:15:45;;;;;;;;;;;;;;;;;;5095835;28;19908;-78
2021/10/04 09:18:18;;;;;;;;;;;;;;;;;;5095979;28;19915;-79
2021/10/04 09:20:50;;;;;;;;;;;;;;;;;;5096199;28;19912;-79
2021/10/04 09:23:27;;;;;;;;;;;;;;;;;;5095921;28;19912;-80
2021/10/04 09:25:52;;;;;;;;;;;;;;;;;;5095689;28;19942;-80
2021/10/04 09:28:25;;;;;;;;;;;;;;;;;;5094729;28;19912;-79
2021/10/04 09:30:54;;;;;;;;;;;;;;;;;;5095599;28;20322;-80
2021/10/04 09:33:19;;;;;;;;;;;;;;;;;;5095945;28;19916;-80
2021/10/04 09:35:45;;;;;;;;;;;;;;;;;;5095768;28;19915;-80
2021/10/04 09:38:16;;;;;;;;;;;;;;;;;;5095693;28;19935;-80
2021/10/04 09:40:43;;;;;;;;;;;;;;;;;;5094981;28;19908;-80
2021/10/04 09:43:26;;;;;;;;;;;;;;;;;;5094684;28;20302;-79
2021/10/04 09:46:07;;;;;;;;;;;;;;;;;;5096044;28;19938;-80
2021/10/04 09:48:33;;;;;;;;;;;;;;;;;;5096182;28;19915;-79
2021/10/04 09:51:18;;;;;;;;;;;;;;;;;;5095515;28;19908;-79
2021/10/04 09:54:04;;;;;;;;;;;;;;;;;;5094518;28;19955;-79
2021/10/04 09:56:29;;;;;;;;;;;;;;;;;;5093955;28;19970;-80
2021/10/04 09:58:54;;;;;;;;;;;;;;;;;;5095557;28;19916;-79
2021/10/04 10:01:19;;;;;;;;;;;;;;;;;;5094581;28;19912;-79
2021/10/04 10:03:46;;;;;;;;;;;;;;;;;;5095651;28;19912;-80
2021/10/04 10:06:11;;;;;;;;;;;;;;;;;;5094586;28;19915;-79
2021/10/04 10:08:36;;;;;;;;;;;;;;;;;;5095782;28;20349;-80
2021/10/04 10:11:05;;;;;;;;;;;;;;;;;;5095538;28;20280;-80
2021/10/04 10:13:31;;;;;;;;;;;;;;;;;;5096077;28;19931;-78
2021/10/04 10:15:57;;;;;;;;;;;;;;;;;;5096597;28;20282;-79
2021/10/04 10:18:27;;;;;;;;;;;;;;;;;;5099516;28;19965;-79
2021/10/04 10:21:00;;;;;;;;;;;;;;;;;;5098083;28;19998;-79
2021/10/04 10:23:45;;;;;;;;;;;;;;;;;;5099723;28;19912;-80
2021/10/04 10:26:29;;;;;;;;;;;;;;;;;;5099164;28;19919;-79
2021/10/04 10:29:13;;;;;;;;;;;;;;;;;;5098576;28;19916;-79
2021/10/04 10:31:50;;;;;;;;;;;;;;;;;;5098974;28;19920;-81
2021/10/04 10:34:24;;;;;;;;;;;;;;;;;;5100381;28;20049;-81
2021/10/04 10:37:01;;;;;;;;;;;;;;;;;;5100626;28;19919;-81
2021/10/04 10:39:36;;;;;;;;;;;;;;;;;;5100747;28;20344;-79
2021/10/04 10:42:11;;;;;;;;;;;;;;;;;;5100601;28;20334;-81
2021/10/04 10:44:55;;;;;;;;;;;;;;;;;;5101885;28;19908;-80
2021/10/04 10:47:32;;;;;;;;;;;;;;;;;;5106626;28;19915;-79
2021/10/04 10:49:58;;;;;;;;;;;;;;;;;;5102576;28;19908;-80
2021/10/04 10:52:24;;;;;;;;;;;;;;;;;;5100466;28;20371;-80
2021/10/04 10:54:52;;;;;;;;;;;;;;;;;;5099354;28;19930;-80
2021/10/04 10:57:18;;;;;;;;;;;;;;;;;;5098387;28;19935;-79
2021/10/04 10:59:43;;;;;;;;;;;;;;;;;;5098291;28;19908;-78
2021/10/04 11:02:27;;;;;;;;;;;;;;;;;;5097366;28;19916;-79
2021/10/04 11:04:52;;;;;;;;;;;;;;;;;;5098579;28;19918;-80
2021/10/04 11:07:50;;;;;;;;;;;;;;;;;;5097517;28;20011;-79
2021/10/04 11:10:15;;;;;;;;;;;;;;;;;;5086586;28;19965;-80
2021/10/04 11:12:59;;;;;;;;;;;;;;;;;;5099063;28;19908;-81
2021/10/04 11:15:28;;;;;;;;;;;;;;;;;;5102681;28;19908;-80
2021/10/04 11:17:54;;;;;;;;;;;;;;;;;;5100884;28;20011;-81
2021/10/04 11:20:19;;;;;;;;;;;;;;;;;;5098546;28;19947;-81
2021/10/04 11:22:44;;;;;;;;;;;;;;;;;;5097874;28;20038;-81
2021/10/04 11:25:10;;;;;;;;;;;;;;;;;;5097734;28;19908;-81
2021/10/04 11:27:46;;;;;;;;;;;;;;;;;;5097855;28;19912;-80
2021/10/04 11:30:11;;;;;;;;;;;;;;;;;;5098824;28;20018;-82
2021/10/04 11:32:37;;;;;;;;;;;;;;;;;;5097259;28;19943;-83
2021/10/04 11:35:12;;;;;;;;;;;;;;;;;;5114324;28;19962;-80
2021/10/04 11:37:38;;;;;;;;;;;;;;;;;;5100403;28;19908;-79
2021/10/04 11:40:05;;;;;;;;;;;;;;;;;;5107307;28;19996;-79
2021/10/04 11:42:32;;;;;;;;;;;;;;;;;;5119689;28;19908;-79
2021/10/04 11:45:00;;;;;;;;;;;;;;;;;;5101458;28;19998;-78
2021/10/04 11:47:25;;;;;;;;;;;;;;;;;;5101382;28;20003;-79
2021/10/04 11:49:52;;;;;;;;;;;;;;;;;;5101147;28;19935;-80
2021/10/04 11:52:19;;;;;;;;;;;;;;;;;;5097902;28;19916;-80
2021/10/04 11:54:47;;;;;;;;;;;;;;;;;;5097774;28;19908;-80
2021/10/04 11:57:13;;;;;;;;;;;;;;;;;;5096538;28;19956;-80
2021/10/04 11:59:55;;;;;;;;;;;;;;;;;;5097354;28;19980;-79
2021/10/04 12:02:23;;;;;;;;;;;;;;;;;;5097669;28;19919;-80
2021/10/04 12:04:49;;;;;;;;;;;;;;;;;;5097897;28;19908;-78
2021/10/04 12:07:15;;;;;;;;;;;;;;;;;;5097849;28;19942;-80
2021/10/04 12:09:41;;;;;;;;;;;;;;;;;;5098049;28;19955;-81
2021/10/04 12:12:06;;;;;;;;;;;;;;;;;;5096853;28;20391;-81
2021/10/04 12:14:32;;;;;;;;;;;;;;;;;;5097773;28;20003;-81
2021/10/04 12:17:01;;;;;;;;;;;;;;;;;;5097699;28;19912;-79
2021/10/04 12:19:26;;;;;;;;;;;;;;;;;;5097280;28;19931;-80
2021/10/04 12:21:52;;;;;;;;;;;;;;;;;;5099723;28;19916;-79
2021/10/04 12:24:20;;;;;;;;;;;;;;;;;;5099245;28;19976;-80
2021/10/04 12:26:48;;;;;;;;;;;;;;;;;;5101643;28;20003;-80
2021/10/04 12:29:26;;;;;;;;;;;;;;;;;;5102894;28;19908;-79
2021/10/04 12:31:51;;;;;;;;;;;;;;;;;;5103453;28;20018;-80
2021/10/04 12:34:24;;;;;;;;;;;;;;;;;;5103964;28;20019;-81
2021/10/04 12:36:50;;;;;;;;;;;;;;;;;;5099757;28;20016;-80
2021/10/04 12:39:15;;;;;;;;;;;;;;;;;;5101873;28;19912;-80
2021/10/04 12:41:41;;;;;;;;;;;;;;;;;;5104367;28;19969;-80
2021/10/04 12:44:10;;;;;;;;;;;;;;;;;;5126459;28;19915;-80
2021/10/04 12:46:35;;;;;;;;;;;;;;;;;;5114547;28;20008;-79
2021/10/04 12:49:15;;;;;;;;;;;;;;;;;;5111105;28;19908;-78
2021/10/04 12:51:45;;;;;;;;;;;;;;;;;;5098430;28;20325;-79
2021/10/04 12:54:10;;;;;;;;;;;;;;;;;;5100986;28;19999;-79
2021/10/04 12:56:38;;;;;;;;;;;;;;;;;;5107045;28;19908;-78
2021/10/04 12:59:09;;;;;;;;;;;;;;;;;;5107118;28;19908;-79
2021/10/04 13:01:47;;;;;;;;;;;;;;;;;;5106589;28;20386;-79
2021/10/04 13:04:13;;;;;;;;;;;;;;;;;;5098461;28;19919;-80
2021/10/04 13:06:41;;;;;;;;;;;;;;;;;;5097060;28;19912;-80
2021/10/04 13:09:08;;;;;;;;;;;;;;;;;;5096657;28;19908;-80
2021/10/04 13:11:33;;;;;;;;;;;;;;;;;;5096174;28;19973;-80
2021/10/04 13:14:03;;;;;;;;;;;;;;;;;;5096440;28;19916;-78
2021/10/04 13:16:28;;;;;;;;;;;;;;;;;;5096003;28;19919;-78
2021/10/04 13:18:53;;;;;;;;;;;;;;;;;;5095884;28;19915;-78
2021/10/04 13:21:19;;;;;;;;;;;;;;;;;;5095676;28;20002;-78
2021/10/04 13:23:44;;;;;;;;;;;;;;;;;;5095938;28;19912;-79
2021/10/04 13:26:12;;;;;;;;;;;;;;;;;;5094680;28;19912;-79
2021/10/04 13:28:38;;;;;;;;;;;;;;;;;;5094668;28;20030;-77
2021/10/04 13:31:04;;;;;;;;;;;;;;;;;;5094545;28;20369;-78
2021/10/04 13:33:29;;;;;;;;;;;;;;;;;;5094499;28;20258;-78
2021/10/04 13:35:54;;;;;;;;;;;;;;;;;;5094589;28;19912;-79
2021/10/04 13:38:19;;;;;;;;;;;;;;;;;;5095510;28;19918;-79
2021/10/04 13:40:45;;;;;;;;;;;;;;;;;;5095635;28;19919;-79
2021/10/04 13:43:10;;;;;;;;;;;;;;;;;;5111397;28;19919;-78
2021/10/04 13:45:36;;;;;;;;;;;;;;;;;;5095369;28;19908;-79
2021/10/04 13:48:01;;;;;;;;;;;;;;;;;;5095129;28;19927;-79
2021/10/04 13:50:27;;;;;;;;;;;;;;;;;;5098529;28;19908;-77
2021/10/04 13:52:52;;;;;;;;;;;;;;;;;;5099598;28;20242;-77
2021/10/04 13:55:18;;;;;;;;;;;;;;;;;;5099861;28;19933;-79
2021/10/04 13:57:43;;;;;;;;;;;;;;;;;;5099349;28;19962;-77
2021/10/04 14:00:09;;;;;;;;;;;;;;;;;;5099650;28;19908;-79
2021/10/04 14:02:35;;;;;;;;;;;;;;;;;;5099479;28;20409;-78
2021/10/04 14:05:00;;;;;;;;;;;;;;;;;;5099489;28;19943;-78
2021/10/04 14:07:26;;;;;;;;;;;;;;;;;;5099745;28;20348;-79
2021/10/04 14:09:51;;;;;;;;;;;;;;;;;;5099543;28;20337;-79
2021/10/04 14:12:16;;;;;;;;;;;;;;;;;;5098242;28;20346;-79
2021/10/04 14:14:41;;;;;;;;;;;;;;;;;;5099449;28;20002;-79
2021/10/04 14:17:06;;;;;;;;;;;;;;;;;;5098713;28;19908;-78
2021/10/04 14:19:32;;;;;;;;;;;;;;;;;;5098534;28;19916;-78
2021/10/04 14:21:57;;;;;;;;;;;;;;;;;;5099393;28;19987;-78
2021/10/04 14:24:22;;;;;;;;;;;;;;;;;;5099178;28;19971;-79
2021/10/04 14:26:47;;;;;;;;;;;;;;;;;;5098904;28;20015;-79
2021/10/04 14:29:13;;;;;;;;;;;;;;;;;;5099241;28;20002;-78
2021/10/04 14:31:38;;;;;;;;;;;;;;;;;;5115121;28;19908;-78
2021/10/04 14:34:03;;;;;;;;;;;;;;;;;;5099408;28;19908;-78
2021/10/04 14:36:29;;;;;;;;;;;;;;;;;;5097965;28;19918;-79
2021/10/04 14:38:55;;;;;;;;;;;;;;;;;;5099901;28;19924;-80
2021/10/04 14:41:21;;;;;;;;;;;;;;;;;;5098922;28;20384;-78
2021/10/04 14:43:47;;;;;;;;;;;;;;;;;;5097992;28;19951;-79
2021/10/04 14:46:12;;;;;;;;;;;;;;;;;;5099512;28;19912;-79
2021/10/04 14:48:37;;;;;;;;;;;;;;;;;;5099168;28;19963;-79
2021/10/04 14:51:02;;;;;;;;;;;;;;;;;;5098797;28;19999;-78
2021/10/04 14:53:28;;;;;;;;;;;;;;;;;;5098735;28;19914;-78
2021/10/04 14:55:53;;;;;;;;;;;;;;;;;;5098940;28;19908;-78
2021/10/04 14:58:18;;;;;;;;;;;;;;;;;;5099074;28;19919;-77
2021/10/04 15:00:46;;;;;;;;;;;;;;;;;;5099901;28;19919;-78
2021/10/04 15:03:11;;;;;;;;;;;;;;;;;;5100785;28;20337;-78
2021/10/04 15:05:36;;;;;;;;;;;;;;;;;;5102900;28;19926;-78
2021/10/04 15:08:01;;;;;;;;;;;;;;;;;;5098095;28;19944;-78
2021/10/04 15:10:27;;;;;;;;;;;;;;;;;;5101637;28;19912;-79
2021/10/04 15:12:52;;;;;;;;;;;;;;;;;;5101590;28;19907;-79
2021/10/04 15:15:17;;;;;;;;;;;;;;;;;;5102262;28;19908;-79
2021/10/04 15:17:43;;;;;;;;;;;;;;;;;;5098493;28;19908;-78
2021/10/04 15:20:08;;;;;;;;;;;;;;;;;;5099267;28;19907;-79
2021/10/04 15:22:33;;;;;;;;;;;;;;;;;;5098610;28;20370;-79
2021/10/04 15:24:59;;;;;;;;;;;;;;;;;;5098330;28;19908;-81
2021/10/04 15:27:24;;;;;;;;;;;;;;;;;;5099050;28;19922;-80
2021/10/04 15:29:49;;;;;;;;;;;;;;;;;;5097979;28;20249;-80
2021/10/04 15:32:14;;;;;;;;;;;;;;;;;;5098697;28;20226;-81
2021/10/04 15:34:40;;;;;;;;;;;;;;;;;;5097938;28;19960;-81
2021/10/04 15:37:05;;;;;;;;;;;;;;;;;;5097907;28;19951;-81
2021/10/04 15:39:30;;;;;;;;;;;;;;;;;;5098147;28;19918;-82
2021/10/04 15:41:56;;;;;;;;;;;;;;;;;;5114319;28;19936;-79
2021/10/04 15:44:23;;;;;;;;;;;;;;;;;;5098008;28;19908;-80
2021/10/04 15:46:49;;;;;;;;;;;;;;;;;;5097670;28;19916;-78
2021/10/04 15:49:14;;;;;;;;;;;;;;;;;;5097547;28;19911;-78
2021/10/04 15:51:40;;;;;;;;;;;;;;;;;;5097606;28;20217;-78
2021/10/04 15:54:05;;;;;;;;;;;;;;;;;;5097974;28;20360;-79
2021/10/04 15:56:31;;;;;;;;;;;;;;;;;;5099498;28;19939;-79
2021/10/04 15:58:56;;;;;;;;;;;;;;;;;;5097410;28;20691;-80
2021/10/04 16:01:21;;;;;;;;;;;;;;;;;;5097429;28;19915;-80
2021/10/04 16:03:47;;;;;;;;;;;;;;;;;;5096457;28;20395;-81
2021/10/04 16:06:12;;;;;;;;;;;;;;;;;;5099227;28;19912;-78
2021/10/04 16:08:42;;;;;;;;;;;;;;;;;;5097345;28;20305;-79
2021/10/04 16:11:08;;;;;;;;;;;;;;;;;;5096520;28;19908;-78
2021/10/04 16:13:33;;;;;;;;;;;;;;;;;;5096585;28;19919;-79
2021/10/04 16:15:58;;;;;;;;;;;;;;;;;;5097265;28;19919;-80
2021/10/04 16:18:25;;;;;;;;;;;;;;;;;;5096397;28;19912;-78
2021/10/04 16:20:50;;;;;;;;;;;;;;;;;;5097889;28;19995;-79
2021/10/04 16:23:16;;;;;;;;;;;;;;;;;;5096421;28;20341;-78
2021/10/04 16:25:41;;;;;;;;;;;;;;;;;;5097132;28;19919;-78
2021/10/04 16:28:07;;;;;;;;;;;;;;;;;;5097060;28;20234;-78
2021/10/04 16:30:34;;;;;;;;;;;;;;;;;;5097131;28;20288;-77
2021/10/04 16:32:59;;;;;;;;;;;;;;;;;;5096934;28;19918;-79
2021/10/04 16:35:25;;;;;;;;;;;;;;;;;;5096317;28;20337;-77
2021/10/04 16:37:50;;;;;;;;;;;;;;;;;;5096950;28;19908;-78
2021/10/04 16:40:16;;;;;;;;;;;;;;;;;;5096026;28;20007;-78